Time;durP1;ratioP1;P1;durP2;ratioP2;P2;SDS_P1;SDS_P2;PMS_P1;PMS_P2;Temp;Humidity;BMP_temperature;BMP_pressure;BME280_temperature;BME280_humidity;BME280_pressure;Samples;Min_cycle;Max_cycle;Signal;HPM_P1;HPM_P2
2023/08/04 00:00:29;;;;;;;;;;;;;;;18.27;66.53;96498.84;6157787;28;19926;-70
2023/08/04 00:03:33;;;;;;;;;;;;;;;18.23;66.55;96492.16;6175029;28;19926;-71
2023/08/04 00:06:34;;;;;;;;;;;;;;;18.16;66.24;96502.59;6174116;28;20084;-70
2023/08/04 00:09:35;;;;;;;;;;;;;;;18.03;66.47;96491.53;6174481;28;19926;-71
2023/08/04 00:12:39;;;;;;;;;;;;;;;17.94;66.29;96495.94;6157063;28;19926;-71
2023/08/04 00:15:43;;;;;;;;;;;;;;;17.93;66.81;96499.59;6174906;28;19926;-69
2023/08/04 00:18:44;;;;;;;;;;;;;;;17.85;66.91;96504.00;6173945;28;20289;-71
2023/08/04 00:21:47;;;;;;;;;;;;;;;17.84;68.11;96497.84;6174685;28;19930;-71
2023/08/04 00:24:51;;;;;;;;;;;;;;;17.92;67.34;96495.25;6173990;28;20312;-71
2023/08/04 00:27:56;;;;;;;;;;;;;;;17.91;67.44;96493.56;6174362;28;19926;-72
2023/08/04 00:31:01;;;;;;;;;;;;;;;17.92;67.48;96494.44;6173819;28;19930;-72
2023/08/04 00:34:05;;;;;;;;;;;;;;;17.91;67.21;96493.56;6174379;28;20384;-72
2023/08/04 00:37:07;;;;;;;;;;;;;;;17.96;66.95;96495.78;6173062;28;20057;-71
2023/08/04 00:40:08;;;;;;;;;;;;;;;17.97;66.92;96502.78;6173528;28;20281;-71
2023/08/04 00:43:12;;;;;;;;;;;;;;;17.94;67.01;96497.75;6174332;28;20411;-71
2023/08/04 00:46:13;;;;;;;;;;;;;;;17.99;67.35;96499.97;6173264;28;19957;-71
2023/08/04 00:49:19;;;;;;;;;;;;;;;18.11;68.08;96504.03;6173874;28;20017;-70
2023/08/04 00:52:21;;;;;;;;;;;;;;;18.16;67.23;96501.75;6173080;28;19935;-70
2023/08/04 00:55:26;;;;;;;;;;;;;;;18.19;66.37;96501.44;6172455;28;19926;-71
2023/08/04 00:58:29;;;;;;;;;;;;;;;18.16;66.27;96502.59;6173891;28;20033;-71
2023/08/04 01:01:35;;;;;;;;;;;;;;;18.20;66.35;96499.59;6173578;28;19926;-71
2023/08/04 01:04:41;;;;;;;;;;;;;;;18.21;66.47;96494.13;6156886;28;19926;-70
2023/08/04 01:07:51;;;;;;;;;;;;;;;18.26;66.37;96494.50;6156724;28;19926;-71
2023/08/04 01:11:05;;;;;;;;;;;;;;;18.31;66.18;96489.53;6172817;28;19930;-71
2023/08/04 01:14:10;;;;;;;;;;;;;;;18.39;66.32;96489.59;6173307;28;19926;-70
2023/08/04 01:17:23;;;;;;;;;;;;;;;18.52;66.34;96494.50;6173412;28;20422;-71
2023/08/04 01:20:25;;;;;;;;;;;;;;;18.66;65.56;96493.06;6173347;28;19926;-71
2023/08/04 01:23:28;;;;;;;;;;;;;;;18.76;65.86;96495.63;6173064;28;20399;-71
2023/08/04 01:26:29;;;;;;;;;;;;;;;18.83;64.83;96489.50;6173273;28;19948;-70
2023/08/04 01:29:33;;;;;;;;;;;;;;;18.88;65.81;96496.19;6172096;28;19926;-71
2023/08/04 01:32:37;;;;;;;;;;;;;;;18.93;65.09;96497.38;6173248;28;20308;-72
2023/08/04 01:35:42;;;;;;;;;;;;;;;18.98;64.63;96496.91;6172552;28;19926;-70
2023/08/04 01:38:48;;;;;;;;;;;;;;;18.99;64.77;96498.56;6172883;28;19926;-71
2023/08/04 01:41:49;;;;;;;;;;;;;;;19.06;64.99;96502.28;6172514;28;19926;-70
2023/08/04 01:44:50;;;;;;;;;;;;;;;19.15;64.81;96509.28;6171597;28;19930;-71
2023/08/04 01:47:58;;;;;;;;;;;;;;;19.24;64.35;96508.31;6172710;28;19926;-70
2023/08/04 01:51:00;;;;;;;;;;;;;;;19.36;65.11;96505.34;6172417;28;19926;-70
2023/08/04 01:54:03;;;;;;;;;;;;;;;19.53;63.98;96515.03;6171784;28;19933;-70
2023/08/04 01:57:09;;;;;;;;;;;;;;;19.67;64.27;96514.47;6172646;28;19926;-71
2023/08/04 02:00:11;;;;;;;;;;;;;;;19.86;63.76;96523.13;6172356;28;19926;-72
2023/08/04 02:03:15;;;;;;;;;;;;;;;20.04;63.48;96525.63;6172260;28;19926;-70
2023/08/04 02:06:18;;;;;;;;;;;;;;;20.22;63.35;96522.81;6170795;28;19932;-71
2023/08/04 02:09:22;;;;;;;;;;;;;;;20.38;62.92;96525.44;6171093;28;19933;-71
2023/08/04 02:12:28;;;;;;;;;;;;;;;20.55;62.39;96535.16;6172342;28;19926;-71
2023/08/04 02:15:32;;;;;;;;;;;;;;;20.66;62.12;96533.13;6172276;28;20353;-71
2023/08/04 02:18:36;;;;;;;;;;;;;;;20.74;62.66;96538.44;6172325;28;19926;-71
2023/08/04 02:21:37;;;;;;;;;;;;;;;20.85;62.33;96540.75;6172174;28;19929;-71
2023/08/04 02:24:41;;;;;;;;;;;;;;;20.98;61.93;96541.06;6171339;28;20393;-71
2023/08/04 02:27:44;;;;;;;;;;;;;;;21.13;61.64;96538.50;6171995;28;20396;-71
2023/08/04 02:30:48;;;;;;;;;;;;;;;21.24;61.38;96542.63;6172042;28;20316;-70
2023/08/04 02:33:52;;;;;;;;;;;;;;;21.34;61.20;96545.91;6171839;28;20412;-71
2023/08/04 02:36:53;;;;;;;;;;;;;;;21.47;61.01;96550.75;6171026;28;19937;-71
2023/08/04 02:39:57;;;;;;;;;;;;;;;21.60;60.23;96553.69;6172058;28;20020;-71
2023/08/04 02:43:01;;;;;;;;;;;;;;;21.68;60.12;96553.66;6154748;28;20016;-71
2023/08/04 02:46:08;;;;;;;;;;;;;;;21.76;60.38;96555.41;6171873;28;20068;-71
2023/08/04 02:49:12;;;;;;;;;;;;;;;21.83;60.74;96555.56;6171846;28;19930;-71
2023/08/04 02:52:17;;;;;;;;;;;;;;;21.90;60.44;96557.31;6171884;28;19927;-71
2023/08/04 02:55:21;;;;;;;;;;;;;;;21.98;60.33;96565.31;6172232;28;19930;-71
2023/08/04 02:58:26;;;;;;;;;;;;;;;22.08;59.95;96569.59;6172088;28;20308;-72
2023/08/04 03:01:30;;;;;;;;;;;;;;;22.14;59.90;96572.41;6171644;28;19933;-71
2023/08/04 03:04:31;;;;;;;;;;;;;;;22.20;59.92;96573.56;6171507;28;19926;-71
2023/08/04 03:07:32;;;;;;;;;;;;;;;22.30;59.92;96563.41;6171310;28;19926;-71
2023/08/04 03:10:38;;;;;;;;;;;;;;;22.43;59.44;96568.19;6171750;28;20414;-71
2023/08/04 03:13:39;;;;;;;;;;;;;;;22.52;59.33;96576.97;6171407;28;19925;-71
2023/08/04 03:16:44;;;;;;;;;;;;;;;22.61;58.69;96581.25;6171655;28;20315;-71
2023/08/04 03:19:45;;;;;;;;;;;;;;;22.66;58.97;96584.22;6174514;28;19933;-70
2023/08/04 03:22:46;;;;;;;;;;;;;;;22.76;58.73;96587.50;6175689;28;19926;-71
2023/08/04 03:25:48;;;;;;;;;;;;;;;22.84;58.24;96587.41;6175138;28;19926;-70
2023/08/04 03:28:49;;;;;;;;;;;;;;;22.89;58.26;96583.34;6175574;28;19949;-71
2023/08/04 03:31:53;;;;;;;;;;;;;;;22.94;58.47;96587.13;6175619;28;20021;-71
2023/08/04 03:34:56;;;;;;;;;;;;;;;23.07;58.26;96586.50;6175016;28;20068;-72
2023/08/04 03:37:59;;;;;;;;;;;;;;;23.19;57.49;96595.78;6175408;28;20045;-70
2023/08/04 03:41:03;;;;;;;;;;;;;;;23.42;56.61;96595.66;6158392;28;19926;-71
2023/08/04 03:44:04;;;;;;;;;;;;;;;23.42;56.27;96584.94;6174639;28;20291;-71
2023/08/04 03:47:07;;;;;;;;;;;;;;;23.44;55.94;96590.97;6175360;28;19926;-71
2023/08/04 03:50:11;;;;;;;;;;;;;;;23.48;55.69;96594.09;6175211;28;20464;-72
2023/08/04 03:53:12;;;;;;;;;;;;;;;23.49;55.52;96587.69;6174506;28;20378;-71
2023/08/04 03:56:13;;;;;;;;;;;;;;;23.54;55.66;96594.16;6175228;28;20300;-72
2023/08/04 03:59:19;;;;;;;;;;;;;;;23.54;55.12;96587.97;6175269;28;19926;-71
2023/08/04 04:02:20;;;;;;;;;;;;;;;23.51;54.99;96599.09;6157337;28;19930;-71
2023/08/04 04:05:23;;;;;;;;;;;;;;;23.52;54.90;96590.00;6173853;28;19937;-70
2023/08/04 04:08:26;;;;;;;;;;;;;;;23.61;54.67;96594.25;6173808;28;19926;-71
2023/08/04 04:11:29;;;;;;;;;;;;;;;23.73;54.67;96592.78;6174649;28;19926;-71
2023/08/04 04:14:31;;;;;;;;;;;;;;;23.82;54.14;96592.66;6174271;28;19926;-71
2023/08/04 04:17:35;;;;;;;;;;;;;;;23.95;54.07;96590.13;6174649;28;19949;-72
2023/08/04 04:20:41;;;;;;;;;;;;;;;24.11;53.60;96595.25;6174361;28;19992;-71
2023/08/04 04:23:45;;;;;;;;;;;;;;;24.20;53.18;96588.75;6174542;28;20311;-72
2023/08/04 04:26:48;;;;;;;;;;;;;;;24.35;52.66;96595.91;6174476;28;19926;-72
2023/08/04 04:29:49;;;;;;;;;;;;;;;24.49;52.56;96597.72;6173388;28;20419;-72
2023/08/04 04:32:52;;;;;;;;;;;;;;;24.61;51.86;96609.63;6148794;28;19952;-72
2023/08/04 04:35:53;;;;;;;;;;;;;;;24.79;50.91;96605.59;6149946;28;19933;-71
2023/08/04 04:38:57;;;;;;;;;;;;;;;24.87;50.47;96605.47;6150392;28;19985;-71
2023/08/04 04:42:01;;;;;;;;;;;;;;;25.04;50.25;96601.44;6148715;28;20025;-71
2023/08/04 04:45:05;;;;;;;;;;;;;;;25.23;49.85;96605.31;6150244;28;19922;-71
2023/08/04 04:48:14;;;;;;;;;;;;;;;26.34;47.64;96594.34;6148477;28;19926;-72
2023/08/04 04:51:17;;;;;;;;;;;;;;;29.25;42.18;96608.84;6150092;28;19926;-72
2023/08/04 04:54:18;;;;;;;;;;;;;;;30.41;39.40;96602.41;6149911;28;20077;-72
2023/08/04 04:57:20;;;;;;;;;;;;;;;32.61;37.45;96611.88;6149698;29;19943;-72
2023/08/04 05:00:23;;;;;;;;;;;;;;;35.23;33.02;96601.25;6149737;28;19927;-72
2023/08/04 05:03:24;;;;;;;;;;;;;;;37.57;27.09;96606.75;6147760;28;20308;-72
2023/08/04 05:06:26;;;;;;;;;;;;;;;40.27;27.45;96603.06;6149423;28;19945;-71
2023/08/04 05:09:27;;;;;;;;;;;;;;;42.69;24.58;96610.25;6148734;28;19926;-72
2023/08/04 05:12:30;;;;;;;;;;;;;;;44.14;23.10;96609.78;6149446;28;19926;-73
2023/08/04 05:15:36;;;;;;;;;;;;;;;45.79;21.65;96619.19;6149186;28;20296;-72
2023/08/04 05:18:41;;;;;;;;;;;;;;;47.65;18.97;96615.97;6149366;28;19926;-72
2023/08/04 05:21:45;;;;;;;;;;;;;;;48.97;20.05;96616.53;6147818;28;19923;-71
2023/08/04 05:24:51;;;;;;;;;;;;;;;49.17;18.38;96614.69;6149098;29;20028;-73
2023/08/04 05:27:53;;;;;;;;;;;;;;;49.65;17.51;96614.81;6149086;28;19933;-72
2023/08/04 05:31:00;;;;;;;;;;;;;;;50.49;16.04;96622.06;6147760;28;19926;-72
2023/08/04 05:34:05;;;;;;;;;;;;;;;51.43;17.40;96625.63;6167775;28;19926;-72
2023/08/04 05:37:08;;;;;;;;;;;;;;;52.27;13.10;96612.66;6155300;28;19933;-72
2023/08/04 05:40:12;;;;;;;;;;;;;;;53.37;15.88;96616.13;6173128;28;19937;-73
2023/08/04 05:43:15;;;;;;;;;;;;;;;54.26;14.09;96623.72;6172408;28;20442;-72
2023/08/04 05:46:16;;;;;;;;;;;;;;;55.16;11.95;96620.22;6154766;28;20419;-71
2023/08/04 05:49:20;;;;;;;;;;;;;;;56.36;14.66;96628.41;6171951;28;19926;-72
2023/08/04 05:52:26;;;;;;;;;;;;;;;57.61;14.58;96627.09;6173585;28;19926;-72
2023/08/04 05:55:31;;;;;;;;;;;;;;;58.37;13.53;96627.31;6179068;28;19945;-71
2023/08/04 05:58:36;;;;;;;;;;;;;;;58.84;10.91;96630.44;6202690;28;19926;-72
2023/08/04 06:01:40;;;;;;;;;;;;;;;59.07;13.79;96626.91;6200286;28;19936;-71
2023/08/04 06:04:44;;;;;;;;;;;;;;;58.65;9.75;96623.34;6200945;28;19926;-71
2023/08/04 06:07:48;;;;;;;;;;;;;;;58.07;11.71;96616.66;6186996;28;19926;-72
2023/08/04 06:10:52;;;;;;;;;;;;;;;57.59;10.73;96612.56;6201553;28;19926;-71
2023/08/04 06:13:55;;;;;;;;;;;;;;;57.08;9.67;96600.72;6183757;28;20036;-72
2023/08/04 06:16:59;;;;;;;;;;;;;;;57.75;9.18;96604.31;6184720;28;20005;-72
2023/08/04 06:20:07;;;;;;;;;;;;;;;58.45;9.72;96600.50;6202892;28;19917;-71
2023/08/04 06:23:11;;;;;;;;;;;;;;;58.88;9.18;96603.63;6202515;28;19933;-72
2023/08/04 06:26:15;;;;;;;;;;;;;;;59.54;10.04;96613.69;6201030;28;19981;-72
2023/08/04 06:29:17;;;;;;;;;;;;;;;59.23;9.68;96598.72;6200614;28;19949;-71
2023/08/04 06:32:49;;;;;;;;;;;;;;;59.53;9.71;96595.03;6200602;28;19926;-72
2023/08/04 06:36:18;;;;;;;;;;;;;;;60.64;9.21;96600.81;6170861;28;19914;-71
2023/08/04 07:10:12;;;;;;;;;;;;;;;59.23;8.08;96553.34;7379906;23;19931;-72
2023/08/04 07:13:18;;;;;;;;;;;;;;;53.90;11.49;96516.50;6184747;28;19930;-73
2023/08/04 07:16:24;;;;;;;;;;;;;;;51.89;12.43;96505.00;6176134;28;19977;-73
2023/08/04 07:19:30;;;;;;;;;;;;;;;50.58;12.85;96488.25;6175970;28;19926;-73
2023/08/04 07:22:34;;;;;;;;;;;;;;;47.88;14.19;96476.09;6175968;28;19933;-72
2023/08/04 07:25:38;;;;;;;;;;;;;;;45.16;16.14;96486.38;6175855;28;20285;-72
2023/08/04 07:28:41;;;;;;;;;;;;;;;42.41;17.61;96475.94;6175601;28;19926;-72
2023/08/04 07:31:47;;;;;;;;;;;;;;;40.69;18.61;96482.78;6175680;28;19925;-73
2023/08/04 07:34:52;;;;;;;;;;;;;;;39.76;19.30;96479.75;6158819;28;19989;-74
2023/08/04 07:37:56;;;;;;;;;;;;;;;39.03;19.63;96476.97;6175489;28;20480;-75
2023/08/04 07:41:00;;;;;;;;;;;;;;;38.46;20.22;96483.28;6175485;28;19926;-72
2023/08/04 07:44:04;;;;;;;;;;;;;;;38.24;20.26;96470.78;6158563;28;19930;-72
2023/08/04 07:47:07;;;;;;;;;;;;;;;38.41;20.98;96471.22;6175659;28;20303;-72
2023/08/04 07:50:11;;;;;;;;;;;;;;;39.79;19.96;96481.91;6175494;28;20316;-72
2023/08/04 07:53:17;;;;;;;;;;;;;;;40.61;19.75;96487.81;6175433;28;19926;-73
2023/08/04 07:56:18;;;;;;;;;;;;;;;39.67;20.43;96485.06;6174275;28;19926;-72
2023/08/04 07:59:21;;;;;;;;;;;;;;;38.29;22.47;96483.66;6175067;28;19926;-72
2023/08/04 08:02:25;;;;;;;;;;;;;;;36.97;25.26;96481.22;6174968;28;20303;-73
2023/08/04 08:05:29;;;;;;;;;;;;;;;35.14;27.83;96482.53;6172903;28;19926;-72
2023/08/04 08:08:35;;;;;;;;;;;;;;;33.80;29.79;96484.38;6174661;28;19926;-75
2023/08/04 08:11:41;;;;;;;;;;;;;;;33.16;30.30;96491.22;6174321;28;19926;-72
2023/08/04 08:14:44;;;;;;;;;;;;;;;32.90;31.15;96498.22;6174687;28;19930;-73
2023/08/04 08:17:50;;;;;;;;;;;;;;;32.70;31.11;96495.16;6174779;28;19926;-73
2023/08/04 08:20:56;;;;;;;;;;;;;;;32.69;31.41;96490.78;6174615;28;19937;-73
2023/08/04 08:23:59;;;;;;;;;;;;;;;32.72;31.11;96501.19;6174583;28;19926;-72
2023/08/04 08:27:03;;;;;;;;;;;;;;;32.79;31.19;96496.41;6174488;28;20308;-73
2023/08/04 08:30:07;;;;;;;;;;;;;;;33.40;30.17;96486.34;6174493;28;20001;-72
2023/08/04 08:33:16;;;;;;;;;;;;;;;34.38;28.52;96489.06;6174237;28;20406;-73
2023/08/04 08:36:19;;;;;;;;;;;;;;;35.58;26.89;96493.13;6173127;28;19948;-73
2023/08/04 08:39:21;;;;;;;;;;;;;;;37.25;25.30;96492.69;6174202;28;19941;-72
2023/08/04 08:42:24;;;;;;;;;;;;;;;40.34;21.97;96498.75;6174355;28;19926;-73
2023/08/04 08:45:28;;;;;;;;;;;;;;;44.07;17.84;96514.34;6173823;28;20359;-73
2023/08/04 08:48:36;;;;;;;;;;;;;;;45.30;16.03;96519.50;6174174;28;20017;-73
2023/08/04 08:51:42;;;;;;;;;;;;;;;45.11;16.32;96519.03;6174432;28;19926;-72
2023/08/04 08:54:46;;;;;;;;;;;;;;;47.35;14.81;96517.75;6173929;28;20069;-72
2023/08/04 08:57:53;;;;;;;;;;;;;;;48.11;14.45;96530.22;6173759;28;19930;-72
2023/08/04 09:00:57;;;;;;;;;;;;;;;46.52;15.82;96530.72;6173601;28;19930;-73
2023/08/04 09:04:01;;;;;;;;;;;;;;;44.58;16.69;96530.22;6173690;28;19926;-71
2023/08/04 09:07:05;;;;;;;;;;;;;;;42.60;18.48;96512.53;6173778;28;20292;-72
2023/08/04 09:10:09;;;;;;;;;;;;;;;41.17;18.80;96507.31;6173232;28;19926;-72
2023/08/04 09:13:14;;;;;;;;;;;;;;;40.56;19.33;96501.69;6173222;28;19941;-73
2023/08/04 09:16:18;;;;;;;;;;;;;;;41.50;18.23;96503.34;6154706;28;19926;-72
2023/08/04 09:19:32;;;;;;;;;;;;;;;44.25;16.30;96510.47;6173224;28;19933;-73
2023/08/04 09:22:37;;;;;;;;;;;;;;;46.90;14.53;96520.56;6172644;28;19926;-72
2023/08/04 09:25:53;;;;;;;;;;;;;;;49.99;12.61;96514.56;6172947;28;19926;-72
2023/08/04 09:29:04;;;;;;;;;;;;;;;52.48;11.25;96528.72;6140016;28;20016;-71
2023/08/04 09:32:13;;;;;;;;;;;;;;;54.04;10.15;96527.06;6173069;28;19926;-72
2023/08/04 09:35:17;;;;;;;;;;;;;;;54.52;10.38;96526.94;6173009;28;19953;-72
2023/08/04 09:38:20;;;;;;;;;;;;;;;53.83;10.45;96522.09;6139520;28;19929;-72
2023/08/04 09:41:27;;;;;;;;;;;;;;;51.27;12.19;96504.38;6172440;28;20003;-73
2023/08/04 09:44:35;;;;;;;;;;;;;;;48.04;13.76;96490.91;6172647;28;20428;-73
2023/08/04 09:47:39;;;;;;;;;;;;;;;44.78;15.11;96483.53;6172416;28;19922;-73
2023/08/04 09:50:45;;;;;;;;;;;;;;;43.31;16.36;96470.28;6172901;28;19926;-73
2023/08/04 09:53:50;;;;;;;;;;;;;;;44.95;15.29;96472.38;6171567;28;20407;-73
2023/08/04 09:56:55;;;;;;;;;;;;;;;46.17;14.05;96471.75;6154639;28;20068;-72
2023/08/04 10:00:01;;;;;;;;;;;;;;;47.96;13.21;96483.53;6172315;28;19926;-73
2023/08/04 10:03:07;;;;;;;;;;;;;;;49.81;11.76;96495.38;6172271;28;19926;-72
2023/08/04 10:06:11;;;;;;;;;;;;;;;50.71;11.29;96500.94;6172228;28;20072;-72
2023/08/04 10:09:18;;;;;;;;;;;;;;;50.44;11.38;96501.97;6172328;28;19926;-72
2023/08/04 10:12:24;;;;;;;;;;;;;;;49.97;11.55;96508.50;6171961;28;20016;-73
2023/08/04 10:15:26;;;;;;;;;;;;;;;48.23;12.44;96503.47;6171248;28;19926;-73
2023/08/04 10:18:46;;;;;;;;;;;;;;;46.18;13.42;96501.19;6172103;28;20403;-73
2023/08/04 10:21:47;;;;;;;;;;;;;;;43.91;15.00;96486.28;6153835;28;20075;-73
2023/08/04 10:24:50;;;;;;;;;;;;;;;41.37;16.95;96487.56;6171970;28;19933;-74
2023/08/04 10:27:53;;;;;;;;;;;;;;;39.09;18.75;96502.50;6172706;28;19926;-72
2023/08/04 10:31:10;;;;;;;;;;;;;;;36.85;23.99;96508.09;6176969;28;20148;-72
2023/08/04 10:34:16;;;;;;;;;;;;;;;33.83;25.97;96501.06;6176969;28;20032;-74
2023/08/04 10:37:22;;;;;;;;;;;;;;;32.68;29.06;96516.41;6159957;28;19926;-73
2023/08/04 10:40:29;;;;;;;;;;;;;;;31.78;29.09;96513.41;6176674;28;20288;-73
2023/08/04 10:43:40;;;;;;;;;;;;;;;30.78;30.69;96482.75;6176590;28;20447;-73
2023/08/04 10:46:43;;;;;;;;;;;;;;;30.21;32.44;96509.59;6176089;28;19926;-72
2023/08/04 10:49:44;;;;;;;;;;;;;;;29.53;33.67;96514.25;6176386;28;19926;-72
2023/08/04 10:52:46;;;;;;;;;;;;;;;28.93;34.85;96519.53;6176000;28;20045;-71
2023/08/04 10:55:54;;;;;;;;;;;;;;;28.84;36.49;96515.44;6175506;28;19926;-72
2023/08/04 10:59:02;;;;;;;;;;;;;;;27.99;37.72;96507.78;6176716;28;19934;-72
2023/08/04 11:02:05;;;;;;;;;;;;;;;27.47;39.21;96498.91;6158479;28;19926;-72
2023/08/04 11:05:13;;;;;;;;;;;;;;;26.73;40.26;96492.88;6176249;28;20072;-72
2023/08/04 11:08:19;;;;;;;;;;;;;;;26.43;40.34;96487.91;6175703;28;20396;-72
2023/08/04 11:11:22;;;;;;;;;;;;;;;26.03;41.95;96497.03;6175622;28;19932;-73
2023/08/04 11:14:25;;;;;;;;;;;;;;;25.35;43.60;96497.88;6176171;28;19926;-72
2023/08/04 11:17:29;;;;;;;;;;;;;;;24.90;45.52;96500.13;6175990;28;20020;-73
2023/08/04 11:20:33;;;;;;;;;;;;;;;24.51;50.04;96498.81;6174477;28;19933;-72
2023/08/04 11:23:37;;;;;;;;;;;;;;;24.23;50.94;96500.66;6175719;28;19926;-73
2023/08/04 11:26:40;;;;;;;;;;;;;;;24.20;53.08;96510.78;6175921;28;19926;-73
2023/08/04 11:29:50;;;;;;;;;;;;;;;24.04;53.62;96507.53;6175637;28;20020;-73
2023/08/04 11:32:56;;;;;;;;;;;;;;;24.06;52.28;96517.06;6175664;28;19930;-73
2023/08/04 11:35:59;;;;;;;;;;;;;;;24.16;51.50;96522.94;6158170;28;20396;-73
2023/08/04 11:39:03;;;;;;;;;;;;;;;24.31;51.27;96519.31;6174954;28;19926;-74
2023/08/04 11:42:09;;;;;;;;;;;;;;;24.42;50.95;96519.63;6175209;28;19930;-72
2023/08/04 11:45:10;;;;;;;;;;;;;;;24.61;51.62;96515.47;6174223;28;19957;-73
2023/08/04 11:48:13;;;;;;;;;;;;;;;24.84;50.65;96514.38;6175038;28;19926;-73
2023/08/04 11:51:20;;;;;;;;;;;;;;;24.90;51.87;96513.56;6174939;28;19926;-74
2023/08/04 11:54:24;;;;;;;;;;;;;;;24.79;52.49;96517.63;6175074;28;20399;-75
2023/08/04 11:57:25;;;;;;;;;;;;;;;24.70;53.09;96518.00;6174689;28;19929;-73
2023/08/04 12:00:32;;;;;;;;;;;;;;;24.85;53.13;96514.19;6174818;28;19926;-73
2023/08/04 12:03:43;;;;;;;;;;;;;;;24.76;53.20;96511.81;6174741;28;19922;-72
2023/08/04 12:06:45;;;;;;;;;;;;;;;24.87;52.83;96525.56;6156570;28;19926;-72
2023/08/04 12:09:51;;;;;;;;;;;;;;;25.06;52.28;96529.41;6174719;28;19930;-72
2023/08/04 12:12:57;;;;;;;;;;;;;;;25.23;52.22;96529.94;6174180;28;19938;-72
2023/08/04 12:15:58;;;;;;;;;;;;;;;25.41;51.37;96545.53;6172839;28;20376;-72
2023/08/04 12:19:08;;;;;;;;;;;;;;;25.54;51.10;96536.69;6173665;28;19933;-72
2023/08/04 12:22:09;;;;;;;;;;;;;;;25.63;50.62;96540.03;6173721;28;20020;-73
2023/08/04 12:25:11;;;;;;;;;;;;;;;25.75;50.02;96535.72;6173025;28;20384;-72
2023/08/04 12:28:12;;;;;;;;;;;;;;;25.93;49.45;96545.94;6173074;28;19926;-72
2023/08/04 12:31:13;;;;;;;;;;;;;;;25.92;49.43;96545.13;6173632;28;19926;-73
2023/08/04 12:34:18;;;;;;;;;;;;;;;25.98;49.14;96544.28;6174083;28;19932;-72
2023/08/04 12:37:19;;;;;;;;;;;;;;;26.12;48.57;96550.53;6173242;28;19926;-72
2023/08/04 12:40:23;;;;;;;;;;;;;;;26.59;47.39;96545.22;6173686;28;19933;-72
2023/08/04 12:43:30;;;;;;;;;;;;;;;27.00;46.96;96544.09;6173964;28;19969;-73
2023/08/04 12:46:33;;;;;;;;;;;;;;;27.10;46.52;96553.44;6156230;28;19933;-71
2023/08/04 12:49:36;;;;;;;;;;;;;;;26.92;46.74;96545.19;6156805;28;19926;-73
2023/08/04 12:52:40;;;;;;;;;;;;;;;26.71;46.91;96548.94;6172362;28;19926;-73
2023/08/04 12:55:41;;;;;;;;;;;;;;;26.56;47.63;96551.84;6173552;28;20065;-72
2023/08/04 12:58:42;;;;;;;;;;;;;;;26.51;47.46;96553.53;6173125;28;19926;-73
2023/08/04 13:01:45;;;;;;;;;;;;;;;26.60;47.45;96542.28;6173411;28;19952;-72
2023/08/04 13:04:49;;;;;;;;;;;;;;;26.53;47.08;96536.09;6172682;28;20016;-72
2023/08/04 13:07:56;;;;;;;;;;;;;;;26.57;47.10;96536.50;6173167;28;19929;-73
2023/08/04 13:11:00;;;;;;;;;;;;;;;26.41;47.28;96537.69;6154890;28;20394;-72
2023/08/04 13:14:04;;;;;;;;;;;;;;;26.36;47.08;96526.72;6171119;28;19933;-73
2023/08/04 13:17:07;;;;;;;;;;;;;;;26.18;47.58;96530.88;6171157;28;19926;-72
2023/08/04 13:20:11;;;;;;;;;;;;;;;25.97;47.75;96529.16;6172345;28;19925;-73
2023/08/04 13:23:12;;;;;;;;;;;;;;;26.02;48.44;96533.13;6171550;28;19926;-72
2023/08/04 13:26:15;;;;;;;;;;;;;;;25.90;48.26;96531.03;6171897;28;19918;-71
2023/08/04 13:29:19;;;;;;;;;;;;;;;26.01;48.27;96531.44;6171881;28;19926;-73
2023/08/04 13:32:22;;;;;;;;;;;;;;;26.13;48.36;96527.13;6171357;28;19926;-71
2023/08/04 13:35:23;;;;;;;;;;;;;;;26.27;48.34;96526.09;6171945;28;19932;-71
2023/08/04 13:38:25;;;;;;;;;;;;;;;26.32;47.96;96528.16;6170891;28;19937;-71
2023/08/04 13:41:25;;;;;;;;;;;;;;;26.43;47.78;96525.66;6170819;28;20350;-72
2023/08/04 13:44:29;;;;;;;;;;;;;;;26.67;47.33;96519.88;6170863;28;19942;-73
2023/08/04 13:47:30;;;;;;;;;;;;;;;27.21;45.60;96522.28;6170932;28;20400;-71
2023/08/04 13:50:33;;;;;;;;;;;;;;;27.41;44.65;96522.22;6171355;28;19926;-73
2023/08/04 13:53:37;;;;;;;;;;;;;;;27.43;44.08;96519.28;6171523;28;20315;-72
2023/08/04 13:56:39;;;;;;;;;;;;;;;27.28;44.35;96528.47;6170903;28;19926;-73
2023/08/04 13:59:42;;;;;;;;;;;;;;;27.29;44.46;96530.16;6171555;28;19926;-72
2023/08/04 14:02:48;;;;;;;;;;;;;;;27.36;44.12;96523.91;6171549;28;19930;-72
2023/08/04 14:06:02;;;;;;;;;;;;;;;27.41;43.92;96529.50;6171360;28;19926;-72
2023/08/04 14:09:07;;;;;;;;;;;;;;;27.42;43.87;96534.66;6171424;28;20049;-72
2023/08/04 14:12:08;;;;;;;;;;;;;;;27.37;43.78;96544.44;6086120;28;1957105;-72
2023/08/04 14:15:10;;;;;;;;;;;;;;;27.36;43.36;96545.50;6172284;28;20208;-72
2023/08/04 14:18:11;;;;;;;;;;;;;;;27.23;43.73;96547.22;6171457;28;20020;-72
2023/08/04 14:21:13;;;;;;;;;;;;;;;27.02;44.33;96542.03;6172339;28;19933;-73
2023/08/04 14:24:14;;;;;;;;;;;;;;;27.01;44.30;96543.09;6172091;28;20028;-71
2023/08/04 14:27:17;;;;;;;;;;;;;;;26.93;44.25;96533.34;6171999;28;19932;-73
2023/08/04 14:30:23;;;;;;;;;;;;;;;26.82;44.05;96529.41;6172301;28;19926;-72
2023/08/04 14:33:27;;;;;;;;;;;;;;;26.52;45.02;96525.50;6172344;28;19926;-71
2023/08/04 14:36:30;;;;;;;;;;;;;;;26.42;45.04;96539.38;6172102;28;19957;-71
2023/08/04 14:39:33;;;;;;;;;;;;;;;26.40;45.26;96536.88;6171656;28;19933;-72
2023/08/04 14:42:41;;;;;;;;;;;;;;;26.20;46.05;96531.47;6171903;28;20032;-71
2023/08/04 14:45:44;;;;;;;;;;;;;;;26.13;45.98;96541.44;6171673;28;19930;-73
2023/08/04 14:48:49;;;;;;;;;;;;;;;26.02;46.17;96543.91;6171885;28;19926;-73
2023/08/04 14:51:55;;;;;;;;;;;;;;;25.88;47.09;96543.88;6171866;28;20070;-72
2023/08/04 14:54:59;;;;;;;;;;;;;;;25.77;47.25;96547.13;6171645;28;20392;-71
2023/08/04 14:58:03;;;;;;;;;;;;;;;25.54;47.57;96548.28;6139275;28;19981;-72
2023/08/04 15:01:05;;;;;;;;;;;;;;;25.54;47.82;96552.84;6171663;28;19950;-71
2023/08/04 15:04:08;;;;;;;;;;;;;;;25.45;47.89;96546.81;6153381;28;20024;-72
2023/08/04 15:07:09;;;;;;;;;;;;;;;25.35;48.26;96557.13;6170618;28;19989;-71
2023/08/04 15:10:10;;;;;;;;;;;;;;;25.21;48.07;96552.69;6170127;28;19926;-71
2023/08/04 15:13:16;;;;;;;;;;;;;;;25.14;48.40;96559.88;6171523;28;20004;-73
2023/08/04 15:16:19;;;;;;;;;;;;;;;25.04;48.46;96558.38;6175879;28;20299;-71
2023/08/04 15:19:23;;;;;;;;;;;;;;;25.04;48.80;96563.75;6175927;28;19926;-72
2023/08/04 15:22:24;;;;;;;;;;;;;;;24.83;49.00;96563.84;6175970;28;19978;-72
2023/08/04 15:25:33;;;;;;;;;;;;;;;24.69;49.75;96564.78;6175807;28;19926;-71
2023/08/04 15:28:34;;;;;;;;;;;;;;;24.55;50.51;96563.84;6174996;28;19969;-72
2023/08/04 15:31:40;;;;;;;;;;;;;;;24.29;50.61;96561.69;6175735;28;19926;-72
2023/08/04 15:34:46;;;;;;;;;;;;;;;24.14;50.99;96562.59;6175799;28;19949;-72
2023/08/04 15:37:49;;;;;;;;;;;;;;;23.97;51.30;96551.28;6175014;28;19937;-74
2023/08/04 15:41:04;;;;;;;;;;;;;;;23.91;51.85;96557.41;6174723;28;20587;-72
2023/08/04 15:48:12;;;;;;;;;;;;;;;23.78;52.82;96572.56;6170736;28;19949;-73
2023/08/04 15:51:14;;;;;;;;;;;;;;;23.62;52.99;96563.69;6174587;28;19983;-72
2023/08/04 15:54:16;;;;;;;;;;;;;;;23.47;53.47;96566.41;6175359;28;19926;-73
2023/08/04 15:57:19;;;;;;;;;;;;;;;23.29;53.40;96564.09;6174446;28;20458;-71
2023/08/04 16:00:20;;;;;;;;;;;;;;;23.22;53.60;96573.94;6157418;28;19926;-72
2023/08/04 16:03:23;;;;;;;;;;;;;;;23.18;54.61;96572.63;6173555;28;19926;-72
2023/08/04 16:06:24;;;;;;;;;;;;;;;23.04;54.37;96568.09;6175012;28;19929;-72
2023/08/04 16:09:30;;;;;;;;;;;;;;;23.00;54.41;96558.75;6175066;28;20387;-72
2023/08/04 16:12:34;;;;;;;;;;;;;;;22.95;54.90;96566.50;6174775;28;19936;-71
2023/08/04 16:15:38;;;;;;;;;;;;;;;22.85;54.78;96567.59;6174990;28;19933;-71
2023/08/04 16:18:44;;;;;;;;;;;;;;;22.83;54.90;96566.13;6175131;28;19926;-72
2023/08/04 16:21:48;;;;;;;;;;;;;;;22.88;55.18;96565.59;6173725;28;19926;-72
2023/08/04 16:24:49;;;;;;;;;;;;;;;22.89;55.06;96569.91;6174294;28;20038;-72
2023/08/04 16:27:52;;;;;;;;;;;;;;;22.78;55.37;96572.03;6172749;28;20475;-72
2023/08/04 16:31:01;;;;;;;;;;;;;;;22.78;55.92;96576.56;6174356;28;19926;-71
2023/08/04 16:34:03;;;;;;;;;;;;;;;22.85;55.86;96578.34;6174311;28;19933;-71